Time;durP1;ratioP1;P1;durP2;ratioP2;P2;SDS_P1;SDS_P2;PMS_P1;PMS_P2;Temp;Humidity;BMP_temperature;BMP_pressure;BME280_temperature;BME280_humidity;BME280_pressure;Samples;Min_cycle;Max_cycle;Signal;HPM_P1;HPM_P2
2022/07/15 00:01:33;;;;;;;;;8.75;8.00;;;;;28.28;32.39;99193.72;4819640;29;45434;-74
2022/07/15 00:03:59;;;;;;;;;11.75;11.00;;;;;28.24;33.25;99189.63;4819051;29;45468;-73
2022/07/15 00:06:25;;;;;;;;;13.00;11.00;;;;;28.17;33.35;99194.00;4819320;29;45620;-73
2022/07/15 00:08:51;;;;;;;;;15.50;14.25;;;;;28.06;33.22;99189.81;4824522;29;45458;-73
2022/07/15 00:11:16;;;;;;;;;17.00;15.00;;;;;27.97;33.66;99192.69;4819126;29;45579;-73
2022/07/15 00:13:42;;;;;;;;;22.67;21.00;;;;;27.88;34.25;99199.97;4821536;29;45449;-73
2022/07/15 00:16:07;;;;;;;;;30.00;25.33;;;;;27.79;34.80;99196.44;4822678;29;45557;-73
2022/07/15 00:18:33;;;;;;;;;17.33;17.33;;;;;27.74;34.39;99197.94;4821014;29;45384;-73
2022/07/15 00:20:58;;;;;;;;;27.00;24.00;;;;;27.70;34.58;99197.44;4822898;29;45456;-73
2022/07/15 00:23:23;;;;;;;;;21.00;20.00;;;;;27.68;35.17;99196.75;4822060;29;45749;-74
2022/07/15 00:25:49;;;;;;;;;25.00;23.00;;;;;27.59;35.15;99195.06;4818679;29;45491;-73
2022/07/15 00:28:14;;;;;;;;;26.33;25.00;;;;;27.51;35.43;99195.00;4820801;29;46052;-74
2022/07/15 00:30:42;;;;;;;;;29.33;27.67;;;;;27.48;35.85;99199.94;4818237;29;45358;-73
2022/07/15 00:33:09;;;;;;;;;27.33;25.00;;;;;27.44;35.74;99200.25;4823183;29;45907;-73
2022/07/15 00:35:37;;;;;;;;;24.67;21.00;;;;;27.39;35.94;99196.34;4823105;29;45391;-73
2022/07/15 00:38:06;;;;;;;;;20.50;17.00;;;;;27.36;36.13;99200.22;4820622;29;45396;-74
2022/07/15 00:40:46;;;;;;;;;21.33;21.33;;;;;27.35;36.00;99192.28;4823738;29;45493;-74
2022/07/15 00:43:12;;;;;;;;;16.50;16.00;;;;;27.32;36.24;99198.00;4823406;29;45575;-74
2022/07/15 00:45:38;;;;;;;;;16.00;14.00;;;;;27.30;35.73;99192.78;4823495;29;45394;-73
2022/07/15 00:48:04;;;;;;;;;15.25;15.25;;;;;27.29;35.95;99187.53;4823571;29;45233;-73
2022/07/15 00:50:30;;;;;;;;;9.50;9.50;;;;;27.29;35.52;99198.38;4823725;29;45388;-73
2022/07/15 00:53:25;;;;;;;;;14.00;12.00;;;;;27.27;35.44;99195.81;4819482;29;45385;-73
2022/07/15 00:55:56;;;;;;;;;15.00;13.25;;;;;27.26;35.65;99190.56;4816421;29;45396;-73
2022/07/15 00:58:23;;;;;;;;;12.00;12.00;;;;;27.26;35.68;99196.84;4823688;29;45491;-73
2022/07/15 01:00:50;;;;;;;;;10.75;10.00;;;;;27.23;35.80;99194.47;4822191;29;45302;-73
2022/07/15 01:03:19;;;;;;;;;15.75;13.25;;;;;27.19;35.62;99187.66;4822672;29;45494;-73
2022/07/15 01:05:46;;;;;;;;;12.00;11.50;;;;;27.14;36.04;99195.47;4821839;29;45358;-73
2022/07/15 01:08:12;;;;;;;;;15.75;15.25;;;;;27.10;36.12;99188.69;4822142;29;45427;-73
2022/07/15 01:10:39;;;;;;;;;12.00;12.00;;;;;27.05;35.85;99191.88;4821576;29;45637;-73
2022/07/15 01:13:05;;;;;;;;;11.75;10.75;;;;;26.99;36.02;99184.41;4822538;29;45624;-73
2022/07/15 01:15:32;;;;;;;;;8.00;7.25;;;;;26.97;36.21;99185.59;4826448;29;45396;-73
2022/07/15 01:18:00;;;;;;;;;8.25;8.00;;;;;26.94;36.95;99191.34;4821292;29;45511;-73
2022/07/15 01:20:25;;;;;;;;;12.50;10.75;;;;;26.87;36.63;99195.66;4823041;29;45482;-73
2022/07/15 01:22:51;;;;;;;;;15.50;13.00;;;;;26.79;36.95;99192.94;4822566;29;45718;-73
2022/07/15 01:25:16;;;;;;;;;13.50;11.75;;;;;26.75;37.13;99192.41;4822371;29;45410;-74
2022/07/15 01:27:41;;;;;;;;;10.25;8.50;;;;;26.73;37.68;99197.97;4818965;29;45376;-73
2022/07/15 01:30:08;;;;;;;;;11.50;11.00;;;;;26.64;37.25;99203.53;4825927;29;45485;-73
2022/07/15 01:32:34;;;;;;;;;12.00;11.25;;;;;26.58;37.36;99194.19;4823282;29;46251;-73
2022/07/15 01:34:59;;;;;;;;;14.00;11.75;;;;;26.55;37.34;99196.38;4820255;29;45363;-73
2022/07/15 01:37:25;;;;;;;;;11.75;10.00;;;;;26.55;37.62;99190.94;4818071;29;45558;-73
2022/07/15 01:39:50;;;;;;;;;9.75;9.75;;;;;26.57;36.75;99188.94;4820217;29;45489;-73
2022/07/15 01:42:16;;;;;;;;;12.25;10.50;;;;;26.58;37.04;99201.47;4821174;29;45661;-73
2022/07/15 01:44:42;;;;;;;;;11.75;8.25;;;;;26.56;37.25;99204.31;4822847;29;45415;-73
2022/07/15 01:47:08;;;;;;;;;11.75;11.75;;;;;26.54;37.34;99203.63;4823078;29;45447;-74
2022/07/15 01:49:33;;;;;;;;;11.50;11.00;;;;;26.54;37.72;99202.78;4823277;29;45546;-73
2022/07/15 01:52:01;;;;;;;;;10.25;9.75;;;;;26.52;37.70;99205.63;4821356;29;47034;-73
2022/07/15 01:54:28;;;;;;;;;10.25;9.75;;;;;26.50;37.84;99204.94;4822779;29;45502;-73
2022/07/15 01:56:54;;;;;;;;;10.25;10.25;;;;;26.43;37.63;99203.91;4822184;29;45282;-73
2022/07/15 01:59:24;;;;;;;;;11.75;11.25;;;;;26.41;37.91;99198.66;4822998;29;45361;-73
2022/07/15 02:01:52;;;;;;;;;11.00;11.00;;;;;26.36;37.71;99198.28;4819589;29;45717;-73
2022/07/15 02:04:18;;;;;;;;;10.75;8.75;;;;;26.31;37.75;99200.59;4823351;29;45416;-73
2022/07/15 02:06:45;;;;;;;;;12.75;11.50;;;;;26.28;37.66;99203.63;4825840;29;45404;-73
2022/07/15 02:09:11;;;;;;;;;10.25;10.25;;;;;26.27;37.89;99196.53;4817362;29;45525;-73
2022/07/15 02:11:36;;;;;;;;;11.50;10.75;;;;;26.27;37.79;99201.06;4822844;29;46237;-73
2022/07/15 02:14:02;;;;;;;;;11.75;11.00;;;;;26.29;38.05;99205.34;4823114;29;45450;-73
2022/07/15 02:16:32;;;;;;;;;11.00;11.00;;;;;26.30;37.78;99198.94;4819291;29;45602;-73
2022/07/15 02:18:58;;;;;;;;;11.25;10.00;;;;;26.31;37.89;99210.59;4825636;29;45319;-73
2022/07/15 02:21:26;;;;;;;;;9.25;9.25;;;;;26.30;37.74;99207.06;4824674;29;45357;-74
2022/07/15 02:23:52;;;;;;;;;9.00;9.00;;;;;26.32;37.93;99212.28;4825836;29;45425;-73
2022/07/15 02:26:18;;;;;;;;;12.00;10.50;;;;;26.32;37.86;99204.16;4825758;29;45503;-73
2022/07/15 02:28:43;;;;;;;;;9.25;9.25;;;;;26.30;37.91;99200.78;4825788;29;45538;-73
2022/07/15 02:31:09;;;;;;;;;9.00;9.00;;;;;26.29;37.68;99205.34;4822464;29;47135;-73
2022/07/15 02:33:34;;;;;;;;;11.50;9.25;;;;;26.28;37.57;99202.78;4822005;29;45414;-73
2022/07/15 02:36:00;;;;;;;;;10.25;9.50;;;;;26.28;37.52;99205.47;4825314;29;45431;-73
2022/07/15 02:38:26;;;;;;;;;8.75;8.50;;;;;26.26;37.14;99205.63;4825604;29;45412;-73
2022/07/15 02:40:51;;;;;;;;;8.75;8.75;;;;;26.27;37.21;99209.19;4825517;29;45500;-73
2022/07/15 02:43:16;;;;;;;;;10.50;10.50;;;;;26.26;37.52;99207.50;4825827;29;45564;-73
2022/07/15 02:45:42;;;;;;;;;9.00;8.75;;;;;26.26;37.45;99204.78;4825596;29;45422;-73
2022/07/15 02:48:08;;;;;;;;;9.75;9.25;;;;;26.27;37.44;99206.47;4819921;29;45543;-73
2022/07/15 02:50:34;;;;;;;;;9.25;9.25;;;;;26.25;37.88;99203.09;4823315;29;46091;-73
2022/07/15 02:53:01;;;;;;;;;8.50;8.50;;;;;26.20;37.94;99206.25;4820620;29;45338;-74
2022/07/15 02:55:27;;;;;;;;;11.50;9.00;;;;;26.17;37.98;99197.63;4824683;29;45445;-73
2022/07/15 02:57:52;;;;;;;;;9.00;9.00;;;;;26.13;38.16;99199.81;4822312;29;45525;-73
2022/07/15 03:00:19;;;;;;;;;8.00;8.00;;;;;26.05;37.79;99202.44;4823913;29;45994;-73
2022/07/15 03:02:46;;;;;;;;;8.25;8.25;;;;;25.96;37.89;99203.41;4821659;29;45540;-73
2022/07/15 03:05:12;;;;;;;;;9.75;8.50;;;;;25.92;38.32;99204.72;4831976;29;45511;-73
2022/07/15 03:07:37;;;;;;;;;8.00;8.00;;;;;25.88;38.37;99208.72;4825099;29;45387;-73
2022/07/15 03:10:05;;;;;;;;;8.75;8.75;;;;;25.86;38.60;99203.47;4825372;29;46593;-74
2022/07/15 03:12:30;;;;;;;;;7.25;6.00;;;;;25.85;38.83;99201.78;4824837;29;45409;-73
2022/07/15 03:14:56;;;;;;;;;11.00;9.00;;;;;25.80;38.85;99209.53;4824827;29;45443;-73
2022/07/15 03:17:22;;;;;;;;;8.00;8.00;;;;;25.76;38.96;99208.13;4825141;29;45431;-73
2022/07/15 03:19:47;;;;;;;;;10.75;9.75;;;;;25.73;38.98;99201.19;4825227;29;46282;-74
2022/07/15 03:22:12;;;;;;;;;6.25;6.25;;;;;25.73;38.90;99208.44;4816757;29;45504;-73
2022/07/15 03:24:38;;;;;;;;;10.00;10.00;;;;;25.69;39.33;99210.59;4825249;29;45479;-73
2022/07/15 03:27:03;;;;;;;;;8.25;8.25;;;;;25.66;39.27;99210.88;4824749;29;45449;-73
2022/07/15 03:29:29;;;;;;;;;8.75;8.50;;;;;25.65;39.19;99208.34;4822957;29;46178;-73
2022/07/15 03:31:55;;;;;;;;;7.00;6.00;;;;;25.62;39.47;99206.81;4819934;29;45462;-73
2022/07/15 03:34:21;;;;;;;;;8.50;8.50;;;;;25.61;39.03;99217.75;4823563;29;45435;-74
2022/07/15 03:36:46;;;;;;;;;10.25;8.00;;;;;25.61;39.49;99215.06;4819628;29;45464;-74
2022/07/15 03:39:11;;;;;;;;;10.00;10.00;;;;;25.60;39.52;99208.78;4838487;29;46500;-74
2022/07/15 03:41:37;;;;;;;;;10.00;10.00;;;;;25.60;39.31;99213.34;4822376;29;45467;-74
2022/07/15 03:44:03;;;;;;;;;10.00;10.00;;;;;25.59;39.67;99217.06;4822644;29;45506;-74
2022/07/15 03:46:29;;;;;;;;;10.00;10.00;;;;;25.58;39.97;99227.00;4821559;29;45469;-74
2022/07/15 03:48:56;;;;;;;;;9.00;9.00;;;;;25.57;40.27;99222.59;4822265;29;46681;-74
2022/07/15 03:51:24;;;;;;;;;10.25;10.25;;;;;25.54;40.08;99220.19;4815460;29;45435;-74
2022/07/15 03:53:50;;;;;;;;;12.25;11.25;;;;;25.53;39.96;99231.16;4834866;29;45549;-74
2022/07/15 03:56:16;;;;;;;;;7.75;7.75;;;;;25.52;40.21;99226.75;4816428;29;45527;-74
2022/07/15 03:58:44;;;;;;;;;12.00;10.75;;;;;25.53;40.23;99231.16;4822157;29;46122;-74
2022/07/15 04:01:09;;;;;;;;;11.00;10.75;;;;;25.50;39.88;99226.06;4823390;29;45466;-74
2022/07/15 04:03:35;;;;;;;;;7.00;7.00;;;;;25.50;39.86;99231.44;4823008;29;45392;-74
2022/07/15 04:06:00;;;;;;;;;9.75;9.75;;;;;25.46;40.28;99239.03;4822707;29;45391;-74
2022/07/15 04:08:26;;;;;;;;;10.25;10.25;;;;;25.45;40.38;99240.03;4822765;29;48008;-73
2022/07/15 04:10:51;;;;;;;;;11.00;10.00;;;;;25.43;40.42;99233.94;4823155;29;45441;-73
2022/07/15 04:13:18;;;;;;;;;10.25;10.00;;;;;25.43;40.11;99239.34;4824124;29;45412;-73
2022/07/15 04:15:44;;;;;;;;;8.00;8.00;;;;;25.41;40.24;99244.03;4824093;29;45474;-73
2022/07/15 04:18:10;;;;;;;;;9.25;7.50;;;;;25.38;40.25;99239.78;4829168;29;46713;-73
2022/07/15 04:20:35;;;;;;;;;9.00;9.00;;;;;25.39;40.41;99232.53;4823413;29;45482;-73
2022/07/15 04:23:01;;;;;;;;;11.25;11.00;;;;;25.38;40.26;99239.78;4820964;29;45446;-74
2022/07/15 04:25:26;;;;;;;;;9.50;9.50;;;;;25.38;40.29;99238.94;4824375;29;45634;-73
2022/07/15 04:27:52;;;;;;;;;10.75;9.00;;;;;25.38;40.00;99247.03;4813939;29;46193;-74
2022/07/15 04:30:17;;;;;;;;;10.25;10.25;;;;;25.36;40.36;99239.09;4823914;29;45423;-74
2022/07/15 04:32:42;;;;;;;;;13.50;10.00;;;;;25.33;40.25;99242.09;4826944;29;45486;-73
2022/07/15 04:35:08;;;;;;;;;9.50;9.50;;;;;25.29;40.21;99240.72;4822995;29;45527;-73
2022/07/15 04:37:34;;;;;;;;;9.25;9.25;;;;;25.24;40.20;99243.00;4822485;29;45491;-74
2022/07/15 04:39:59;;;;;;;;;8.00;8.00;;;;;25.19;39.97;99237.22;4831333;29;45388;-74
2022/07/15 04:42:25;;;;;;;;;11.00;9.50;;;;;25.16;40.14;99239.34;4821038;29;45874;-73
2022/07/15 04:44:51;;;;;;;;;9.50;9.50;;;;;25.14;40.47;99241.34;4823631;29;45475;-73
2022/07/15 04:47:17;;;;;;;;;11.00;10.00;;;;;25.14;40.46;99244.03;4823529;29;45503;-73
2022/07/15 04:52:27;;;;;;;;;12.00;11.25;;;;;25.11;41.86;99256.03;4820112;29;45254;-72
2022/07/15 04:54:53;;;;;;;;;10.25;9.50;;;;;25.03;42.28;99251.34;4820933;29;45400;-75
2022/07/15 04:57:20;;;;;;;;;14.00;12.00;;;;;24.98;41.88;99245.56;4823069;29;45604;-75
2022/07/15 04:59:45;;;;;;;;;9.75;9.75;;;;;24.95;41.48;99242.34;4823266;29;45528;-75
2022/07/15 05:02:11;;;;;;;;;11.25;10.25;;;;;24.95;42.05;99243.19;4816096;29;45410;-75
2022/07/15 05:04:36;;;;;;;;;9.50;9.50;;;;;24.99;42.23;99241.84;4822931;29;45490;-75
2022/07/15 05:07:02;;;;;;;;;12.00;10.00;;;;;25.03;42.08;99240.56;4822976;29;46542;-73
2022/07/15 05:09:27;;;;;;;;;10.00;10.00;;;;;25.07;42.51;99243.81;4823714;29;45377;-73
2022/07/15 05:11:53;;;;;;;;;9.50;9.50;;;;;25.10;41.93;99243.53;4822998;29;45351;-73
2022/07/15 05:14:18;;;;;;;;;11.25;10.25;;;;;25.13;41.88;99245.06;4823071;29;45231;-73
2022/07/15 05:16:44;;;;;;;;;9.25;9.25;;;;;25.12;42.10;99244.22;4821418;29;46394;-75
2022/07/15 05:19:09;;;;;;;;;11.25;10.00;;;;;25.13;41.83;99242.38;4829755;29;45229;-73
2022/07/15 05:21:34;;;;;;;;;11.50;11.50;;;;;25.14;41.93;99238.66;4821949;29;45404;-73
2022/07/15 05:24:00;;;;;;;;;10.00;10.00;;;;;25.18;42.07;99245.44;4826613;29;45537;-74
2022/07/15 05:26:25;;;;;;;;;13.25;12.25;;;;;25.21;42.13;99245.16;4822807;29;45330;-74
2022/07/15 05:28:51;;;;;;;;;9.00;9.00;;;;;25.23;43.23;99249.41;4820431;29;45384;-74
2022/07/15 05:31:16;;;;;;;;;10.50;8.00;;;;;25.23;42.71;99251.25;4821992;29;45301;-73
2022/07/15 05:33:42;;;;;;;;;12.50;12.25;;;;;25.22;42.63;99250.41;4821120;29;45319;-74
2022/07/15 05:36:12;;;;;;;;;10.25;10.25;;;;;25.22;43.00;99253.09;4822765;29;45387;-74
2022/07/15 05:38:38;;;;;;;;;9.25;9.00;;;;;25.26;43.09;99250.97;4818347;29;45402;-73
2022/07/15 05:41:03;;;;;;;;;12.25;11.25;;;;;25.29;43.03;99253.34;4821729;29;46109;-73
2022/07/15 05:43:29;;;;;;;;;13.00;12.00;;;;;25.30;42.38;99250.47;4823057;29;45335;-74
2022/07/15 05:45:54;;;;;;;;;12.00;11.00;;;;;25.32;42.59;99250.31;4821412;29;45551;-74
2022/07/15 05:48:20;;;;;;;;;14.75;12.25;;;;;25.36;42.77;99254.44;4822327;29;45555;-73
2022/07/15 05:50:45;;;;;;;;;9.75;9.00;;;;;25.40;42.51;99261.22;4822732;29;45368;-74
2022/07/15 05:53:11;;;;;;;;;10.25;9.75;;;;;25.42;42.32;99253.84;4820690;29;45728;-73
2022/07/15 05:55:36;;;;;;;;;11.00;11.00;;;;;25.46;42.16;99254.38;4825769;29;46409;-73
2022/07/15 05:58:05;;;;;;;;;14.50;12.75;;;;;25.53;42.05;99260.84;4825391;29;45310;-75
2022/07/15 06:00:31;;;;;;;;;12.50;11.75;;;;;25.57;42.13;99257.69;4825299;29;45544;-74
2022/07/15 06:02:56;;;;;;;;;11.50;11.50;;;;;25.62;42.42;99257.28;4837621;29;45801;-74
2022/07/15 06:05:22;;;;;;;;;13.25;13.25;;;;;25.65;42.33;99255.09;4824824;29;45453;-73
2022/07/15 06:07:47;;;;;;;;;13.25;13.00;;;;;25.71;42.21;99253.66;4823815;29;45470;-75
2022/07/15 06:10:12;;;;;;;;;13.00;13.00;;;;;25.76;41.99;99254.03;4825567;29;45419;-73
2022/07/15 06:12:38;;;;;;;;;13.25;12.00;;;;;25.79;41.66;99248.34;4822711;29;45391;-73
2022/07/15 06:15:04;;;;;;;;;8.50;8.50;;;;;25.82;41.79;99250.69;4824915;29;45467;-73
2022/07/15 06:17:30;;;;;;;;;11.75;11.00;;;;;25.89;41.73;99253.63;4817278;29;45412;-73
2022/07/15 06:19:55;;;;;;;;;18.25;18.25;;;;;25.94;41.60;99259.44;4819194;29;45471;-74
2022/07/15 06:22:21;;;;;;;;;16.25;14.25;;;;;25.99;41.29;99255.25;4822145;29;45485;-75
2022/07/15 06:24:46;;;;;;;;;12.25;12.25;;;;;26.03;40.91;99253.94;4830437;29;45415;-74
2022/07/15 06:27:12;;;;;;;;;14.00;14.00;;;;;26.08;41.37;99248.06;4830700;29;45380;-75
2022/07/15 06:29:37;;;;;;;;;11.25;11.25;;;;;26.11;41.00;99255.03;4823831;29;45356;-74
2022/07/15 06:32:03;;;;;;;;;14.00;12.75;;;;;26.14;41.14;99241.19;4824949;29;45450;-75
2022/07/15 06:34:28;;;;;;;;;16.00;15.25;;;;;26.19;40.96;99246.97;4823436;29;45557;-75
2022/07/15 06:36:53;;;;;;;;;12.00;12.00;;;;;26.24;40.86;99241.94;4822867;29;45437;-56
2022/07/15 06:39:20;;;;;;;;;16.00;12.00;;;;;26.30;40.68;99233.22;4823345;29;45877;-56
2022/07/15 06:41:45;;;;;;;;;12.50;12.50;;;;;26.33;40.64;99231.03;4822066;29;45520;-56
2022/07/15 06:44:11;;;;;;;;;16.00;14.50;;;;;26.39;40.21;99229.56;4823506;29;45712;-56
2022/07/15 06:46:36;;;;;;;;;14.50;13.00;;;;;26.42;40.32;99226.53;4822490;29;45491;-56
2022/07/15 06:49:01;;;;;;;;;12.75;12.50;;;;;26.46;39.92;99227.09;4822525;29;45554;-63
2022/07/15 06:51:47;;;;;;;;;12.33;12.33;;;;;26.48;39.79;99222.38;5108535;27;45358;-60
2022/07/15 06:54:12;;;;;;;;;25.33;22.33;;;;;26.49;40.16;99227.59;5084289;27;45514;-61
2022/07/15 06:56:39;;;;;;;;;14.25;12.50;;;;;26.53;40.21;99225.41;5084910;27;45356;-57
2022/07/15 06:59:04;;;;;;;;;16.33;14.67;;;;;26.56;40.03;99223.25;5081460;27;45267;-57
2022/07/15 07:01:30;;;;;;;;;14.75;12.00;;;;;26.61;39.81;99229.03;5085573;27;45322;-57
2022/07/15 07:03:55;;;;;;;;;14.33;14.33;;;;;26.67;40.12;99222.09;5085458;27;45713;-58
2022/07/15 07:06:21;;;;;;;;;16.00;15.00;;;;;26.71;40.35;99220.78;5079917;27;45428;-71
2022/07/15 07:08:47;;;;;;;;;13.00;13.00;;;;;26.75;40.24;99227.56;5083699;27;45398;-58
2022/07/15 07:11:14;;;;;;;;;14.33;13.33;;;;;26.77;40.10;99222.84;5088120;27;46215;-59
2022/07/15 07:13:39;;;;;;;;;17.00;15.67;;;;;26.77;39.93;99221.00;5079067;27;45391;-58
2022/07/15 07:16:05;;;;;;;;;18.00;18.00;;;;;26.83;39.83;99224.03;5072966;27;45580;-59
2022/07/15 07:18:31;;;;;;;;;15.67;14.67;;;;;26.87;39.94;99223.56;5088379;27;45652;-59
2022/07/15 07:20:57;;;;;;;;;14.00;13.00;;;;;26.89;39.62;99221.53;5080216;27;45541;-59
2022/07/15 07:23:26;;;;;;;;;14.00;13.33;;;;;26.92;39.57;99217.69;5080795;27;45377;-59
2022/07/15 07:25:53;;;;;;;;;18.33;18.00;;;;;26.95;39.62;99214.69;5078631;27;45401;-60
2022/07/15 07:28:18;;;;;;;;;14.33;14.33;;;;;26.99;39.57;99218.72;5081540;27;45541;-60
2022/07/15 07:30:44;;;;;;;;;15.33;14.33;;;;;27.03;39.75;99220.09;5079597;27;45644;-60
2022/07/15 07:33:09;;;;;;;;;12.67;12.67;;;;;27.06;39.30;99222.50;5083675;27;45374;-61
2022/07/15 07:35:34;;;;;;;;;14.67;14.00;;;;;27.02;39.37;99227.38;5082972;27;45433;-60
2022/07/15 07:38:00;;;;;;;;;12.00;12.00;;;;;27.00;39.32;99223.97;5077661;27;45477;-60
2022/07/15 07:40:25;;;;;;;;;18.00;15.33;;;;;26.99;39.36;99213.31;5077865;27;45459;-60
2022/07/15 07:42:51;;;;;;;;;12.00;12.00;;;;;26.99;39.58;99216.88;5082865;27;45464;-60
2022/07/15 07:45:16;;;;;;;;;11.33;11.33;;;;;27.00;39.08;99215.88;5076587;27;45484;-60
2022/07/15 07:47:43;;;;;;;;;11.00;11.00;;;;;26.97;38.71;99221.63;5082758;27;45513;-60
2022/07/15 07:50:10;;;;;;;;;10.50;10.50;;;;;26.96;38.92;99216.38;5078430;27;46474;-61
2022/07/15 07:52:35;;;;;;;;;14.50;12.50;;;;;26.97;39.11;99218.06;5080751;27;45329;-61
2022/07/15 07:55:01;;;;;;;;;14.25;11.75;;;;;26.96;38.92;99214.50;5077572;27;45433;-60
2022/07/15 07:57:26;;;;;;;;;11.00;11.00;;;;;26.97;38.94;99215.38;5080534;27;45383;-60
2022/07/15 07:59:52;;;;;;;;;12.75;12.75;;;;;26.96;39.05;99213.66;5077887;27;45576;-61
2022/07/15 08:02:17;;;;;;;;;10.67;10.67;;;;;26.98;38.89;99217.88;5077792;27;45475;-60
2022/07/15 08:04:43;;;;;;;;;13.00;13.00;;;;;26.97;38.71;99218.06;5062166;27;45358;-61
2022/07/15 08:07:08;;;;;;;;;13.33;13.33;;;;;26.96;38.87;99219.94;5063746;28;45518;-60
2022/07/15 08:09:34;;;;;;;;;14.33;14.33;;;;;26.95;38.67;99214.69;5070258;28;45641;-60
2022/07/15 08:11:59;;;;;;;;;12.00;12.00;;;;;26.94;38.64;99211.13;5071210;27;45609;-60
2022/07/15 08:14:25;;;;;;;;;15.67;14.00;;;;;26.96;38.92;99219.09;5070838;28;45551;-60
2022/07/15 08:16:51;;;;;;;;;16.00;16.00;;;;;27.00;39.46;99207.75;5069598;28;45431;-60
2022/07/15 08:19:19;;;;;;;;;14.67;12.33;;;;;27.02;39.42;99202.16;5069704;27;45655;-55
2022/07/15 08:21:45;;;;;;;;;12.25;10.25;;;;;27.04;39.21;99202.84;5068662;27;45403;-54
2022/07/15 08:24:12;;;;;;;;;13.00;12.50;;;;;27.12;39.37;99202.91;5069626;28;45376;-60
2022/07/15 08:26:38;;;;;;;;;8.00;7.75;;;;;27.16;39.09;99198.81;5069888;27;45454;-60
2022/07/15 08:29:04;;;;;;;;;13.50;13.50;;;;;27.22;38.94;99205.44;5072640;28;45516;-60
2022/07/15 08:31:30;;;;;;;;;13.67;13.67;;;;;27.28;39.04;99202.09;5069997;28;45390;-60
2022/07/15 08:33:55;;;;;;;;;12.75;12.75;;;;;27.37;38.93;99198.38;5064259;27;45415;-54
2022/07/15 08:36:21;;;;;;;;;15.75;14.00;;;;;27.47;38.77;99188.25;5057795;28;45493;-55
2022/07/15 08:38:48;;;;;;;;;9.75;9.50;;;;;27.55;38.29;99190.94;5070217;28;45380;-56
2022/07/15 08:41:15;;;;;;;;;8.75;8.00;;;;;27.65;37.95;99186.25;5069149;27;45350;-55
2022/07/15 08:43:40;;;;;;;;;8.00;8.00;;;;;27.75;37.77;99180.69;5068074;28;45495;-56
2022/07/15 08:46:07;;;;;;;;;12.75;11.00;;;;;27.87;38.07;99171.19;5069997;27;45473;-56
2022/07/15 08:48:36;;;;;;;;;14.50;11.00;;;;;28.01;37.67;99170.47;5068664;28;45531;-55
2022/07/15 08:51:04;;;;;;;;;13.50;13.25;;;;;28.12;37.18;99177.44;5072779;27;45373;-56
2022/07/15 08:53:30;;;;;;;;;15.00;14.00;;;;;28.22;36.90;99177.25;5070672;28;45499;-54
2022/07/15 08:55:57;;;;;;;;;13.25;13.25;;;;;28.32;36.53;99178.75;5068215;27;45490;-56
2022/07/15 08:58:22;;;;;;;;;13.00;13.00;;;;;28.43;36.34;99174.84;5071680;28;46554;-56
2022/07/15 09:00:49;;;;;;;;;11.00;11.00;;;;;28.51;36.26;99169.38;5069792;27;45498;-55
2022/07/15 09:03:15;;;;;;;;;12.25;11.50;;;;;28.60;36.24;99160.22;5068968;28;45534;-55
2022/07/15 09:05:41;;;;;;;;;10.75;10.75;;;;;28.69;35.94;99163.72;5070197;27;46219;-55
2022/07/15 09:08:14;;;;;;;;;11.75;11.00;;;;;28.79;35.73;99167.09;5066441;27;45646;-55
2022/07/15 09:10:54;;;;;;;;;11.75;10.25;;;;;28.91;36.33;99159.44;5075803;27;45516;-56
2022/07/15 09:13:32;;;;;;;;;9.75;9.75;;;;;29.02;35.24;99159.88;5064310;28;45618;-56
2022/07/15 09:16:04;;;;;;;;;13.75;12.50;;;;;29.06;35.89;99161.22;5070741;27;45568;-55
2022/07/15 09:18:43;;;;;;;;;12.75;12.75;;;;;29.10;35.58;99156.28;5068794;28;45976;-55
2022/07/15 09:21:20;;;;;;;;;9.00;9.00;;;;;29.18;36.68;99146.19;5071729;27;45432;-56
2022/07/15 09:23:46;;;;;;;;;9.00;9.00;;;;;29.24;36.26;99141.06;5071050;28;45505;-56
2022/07/15 09:26:26;;;;;;;;;8.50;7.75;;;;;29.28;36.90;99159.56;5070052;27;45479;-55
2022/07/15 09:28:53;;;;;;;;;10.75;9.25;;;;;29.36;36.74;99155.91;5067357;27;46115;-54
2022/07/15 09:34:24;;;;;;;;;5.50;5.50;;;;;29.50;36.30;99155.16;5066571;28;45514;-56
2022/07/15 09:36:54;;;;;;;;;8.25;8.25;;;;;29.57;37.43;99153.41;5066684;28;45455;-56
2022/07/15 09:39:24;;;;;;;;;7.25;7.25;;;;;29.69;36.56;99151.97;5069505;28;47167;-54
2022/07/15 09:41:52;;;;;;;;;7.50;7.50;;;;;29.77;36.66;99134.75;5066228;27;45511;-54
2022/07/15 09:44:19;;;;;;;;;8.50;8.50;;;;;29.85;36.34;99145.53;5070347;28;45426;-56
2022/07/15 09:46:51;;;;;;;;;7.75;7.75;;;;;29.92;35.80;99140.22;5067567;27;45491;-56
2022/07/15 09:49:17;;;;;;;;;10.00;8.25;;;;;29.97;36.24;99141.41;5067778;28;46374;-54
2022/07/15 09:51:54;;;;;;;;;10.00;10.00;;;;;30.04;36.31;99141.47;5063818;28;45434;-55
2022/07/15 09:54:21;;;;;;;;;10.75;8.25;;;;;30.12;36.12;99127.81;5066328;28;45478;-56
2022/07/15 09:56:47;;;;;;;;;7.00;6.50;;;;;30.15;35.54;99122.84;5068017;27;45590;-56
2022/07/15 09:59:14;;;;;;;;;9.75;9.25;;;;;30.25;35.33;99129.88;5062322;27;46470;-60
2022/07/15 10:01:41;;;;;;;;;8.00;8.00;;;;;30.32;34.73;99125.38;5058202;27;45408;-60
2022/07/15 10:04:06;;;;;;;;;8.75;8.00;;;;;30.37;35.00;99123.78;5066699;27;45568;-60
2022/07/15 10:06:35;;;;;;;;;7.50;7.50;;;;;30.39;34.74;99123.59;5067258;27;45336;-61
2022/07/15 10:09:03;;;;;;;;;8.75;8.75;;;;;30.42;34.26;99115.06;5071803;27;45593;-60
2022/07/15 10:11:30;;;;;;;;;5.25;4.50;;;;;30.48;34.27;99142.38;5059016;27;45472;-61
2022/07/15 10:14:17;;;;;;;;;9.00;9.00;;;;;30.53;34.83;99125.44;5069510;27;45480;-60
2022/07/15 10:17:11;;;;;;;;;7.25;7.25;;;;;30.59;34.58;99122.03;5074958;27;45447;-61
2022/07/15 10:20:13;;;;;;;;;7.75;6.75;;;;;30.70;34.26;99113.34;5066447;27;46325;-56
2022/07/15 10:22:57;;;;;;;;;7.50;7.00;;;;;30.75;33.80;99129.97;5061306;28;45432;-55
2022/07/15 10:25:47;;;;;;;;;7.50;7.50;;;;;30.84;34.28;99100.75;5070222;27;45461;-60
2022/07/15 10:28:20;;;;;;;;;8.25;6.75;;;;;30.89;34.22;99112.75;5069187;27;45429;-55
2022/07/15 10:30:45;;;;;;;;;8.00;8.00;;;;;30.93;33.91;99094.16;5070160;28;45533;-55
2022/07/15 10:33:13;;;;;;;;;8.50;8.00;;;;;30.97;33.49;99102.81;5070435;27;45630;-56
2022/07/15 10:35:53;;;;;;;;;9.00;9.00;;;;;30.98;33.64;99124.41;5079844;27;45450;-57
2022/07/15 10:38:37;;;;;;;;;9.75;8.75;;;;;31.07;33.83;99104.16;5069897;27;45484;-61
2022/07/15 10:41:06;;;;;;;;;9.00;8.00;;;;;31.10;33.76;99109.25;5069358;27;45396;-62
2022/07/15 10:43:40;;;;;;;;;9.00;8.00;;;;;31.08;33.74;99105.84;5077424;27;45603;-61
2022/07/15 10:46:27;;;;;;;;;7.00;7.00;;;;;31.08;33.33;99097.69;5068961;28;45469;-61
2022/07/15 10:48:58;;;;;;;;;4.75;4.25;;;;;31.17;33.69;99123.78;5062966;27;45520;-61
2022/07/15 10:51:36;;;;;;;;;8.75;8.75;;;;;31.25;32.95;99089.28;5067250;28;45508;-55
2022/07/15 10:54:10;;;;;;;;;5.25;5.25;;;;;31.27;32.94;99104.41;5071571;27;45360;-54
2022/07/15 10:56:47;;;;;;;;;9.00;9.00;;;;;31.17;32.86;99087.56;5071255;27;45360;-71
2022/07/15 10:59:20;;;;;;;;;9.00;9.00;;;;;31.15;33.49;99104.09;5071958;28;45437;-60
2022/07/15 11:01:49;;;;;;;;;5.75;5.75;;;;;31.15;33.57;99090.47;5071089;27;45952;-59
2022/07/15 11:04:17;;;;;;;;;10.00;10.00;;;;;31.12;32.99;99081.84;5071580;28;45505;-60
2022/07/15 11:07:12;;;;;;;;;7.75;7.75;;;;;31.15;32.45;99105.97;5072361;27;45707;-66
2022/07/15 11:09:53;;;;;;;;;4.00;4.00;;;;;31.19;32.17;99085.44;5063573;28;45395;-64
2022/07/15 11:12:20;;;;;;;;;9.50;9.25;;;;;31.23;32.78;99070.41;5071238;28;45540;-58
2022/07/15 11:14:51;;;;;;;;;7.25;7.25;;;;;31.25;32.94;99097.47;5070202;27;45373;-59
2022/07/15 11:17:24;;;;;;;;;9.75;9.75;;;;;31.26;32.89;99094.53;5071487;27;45407;-69
2022/07/15 11:19:53;;;;;;;;;11.75;10.25;;;;;31.29;33.16;99056.03;5065487;28;45435;-66
2022/07/15 11:22:20;;;;;;;;;11.50;10.25;;;;;31.33;32.31;99075.56;5071093;27;45585;-62
2022/07/15 11:24:47;;;;;;;;;8.00;8.00;;;;;31.33;32.34;99067.38;5070176;27;45412;-59
2022/07/15 11:27:13;;;;;;;;;8.75;7.75;;;;;31.35;32.66;99046.19;5070381;27;45408;-58
2022/07/15 11:29:54;;;;;;;;;10.25;8.75;;;;;31.38;32.56;99065.72;5057852;28;45414;-58
2022/07/15 11:32:22;;;;;;;;;7.00;6.00;;;;;31.45;32.31;99120.31;5069284;27;47358;-61